createdAt,value
2018-05-15T00:00:56.175Z,48.55
2018-05-15T00:03:23.579Z,48.90
2018-05-15T00:05:50.955Z,50.62
2018-05-15T00:08:18.342Z,50.26
2018-05-15T00:10:45.726Z,50.36
2018-05-15T00:13:13.111Z,51.96
2018-05-15T00:15:40.511Z,52.29
2018-05-15T00:18:07.895Z,51.28
2018-05-15T00:20:35.283Z,52.65
2018-05-15T00:23:02.671Z,53.26
2018-05-15T00:25:30.052Z,52.62
2018-05-15T00:27:57.446Z,54.09
2018-05-15T00:30:24.827Z,53.81
2018-05-15T00:32:52.214Z,52.97
2018-05-15T00:35:19.604Z,53.80
2018-05-15T00:37:46.999Z,53.74
2018-05-15T00:40:14.382Z,53.65
2018-05-15T00:42:41.771Z,54.08
2018-05-15T00:45:09.167Z,53.43
2018-05-15T00:47:36.548Z,53.11
2018-05-15T00:50:03.947Z,53.82
2018-05-15T00:52:31.331Z,53.79
2018-05-15T00:55:10.528Z,53.76
2018-05-15T00:57:37.911Z,54.84
2018-05-15T01:00:05.292Z,55.06
2018-05-15T01:02:32.687Z,55.17
2018-05-15T01:05:00.075Z,54.99
2018-05-15T01:07:27.463Z,55.33
2018-05-15T01:09:54.855Z,56.35
2018-05-15T01:12:22.235Z,56.05
2018-05-15T01:14:49.630Z,55.59
2018-05-15T01:17:17.015Z,56.38
2018-05-15T01:19:44.395Z,56.76
2018-05-15T01:22:11.783Z,56.30
2018-05-15T01:24:39.231Z,56.69
2018-05-15T01:27:06.626Z,56.56
2018-05-15T01:29:34.019Z,57.31
2018-05-15T01:32:01.403Z,56.75
2018-05-15T01:34:28.801Z,56.29
2018-05-15T01:36:56.183Z,56.44
2018-05-15T01:39:23.579Z,55.95
2018-05-15T01:41:50.971Z,56.25
2018-05-15T01:44:18.363Z,54.69
2018-05-15T01:46:45.755Z,54.42
2018-05-15T01:49:13.135Z,54.53
2018-05-15T01:51:40.547Z,54.08
2018-05-15T01:54:07.926Z,53.74
2018-05-15T01:56:35.314Z,53.88
2018-05-15T01:59:02.700Z,53.20
2018-05-15T02:01:30.084Z,53.26
2018-05-15T02:03:57.474Z,51.95
2018-05-15T02:06:24.859Z,52.17
2018-05-15T02:08:52.313Z,52.51
2018-05-15T02:11:19.705Z,52.74
2018-05-15T02:13:47.081Z,52.19
2018-05-15T02:16:14.466Z,54.44
2018-05-15T02:18:41.850Z,53.28
2018-05-15T02:21:09.247Z,53.34
2018-05-15T02:23:36.645Z,53.34
2018-05-15T02:26:04.025Z,53.18
2018-05-15T02:28:31.414Z,53.38
2018-05-15T02:30:58.798Z,54.39
2018-05-15T02:33:26.188Z,54.96
2018-05-15T02:35:53.567Z,54.25
2018-05-15T02:38:20.959Z,55.08
2018-05-15T02:40:48.338Z,55.56
2018-05-15T02:43:15.727Z,54.63
2018-05-15T02:45:43.222Z,55.98
2018-05-15T02:48:10.606Z,56.44
2018-05-15T02:50:37.991Z,56.38
2018-05-15T02:53:05.375Z,56.44
2018-05-15T02:55:32.775Z,54.85
2018-05-15T02:58:00.154Z,55.77
2018-05-15T03:00:27.538Z,55.52
2018-05-15T03:02:54.926Z,56.19
2018-05-15T03:05:22.475Z,56.82
2018-05-15T03:07:49.863Z,57.13
2018-05-15T03:10:17.417Z,57.53
2018-05-15T03:12:44.787Z,56.81
2018-05-15T03:15:12.171Z,56.86
2018-05-15T03:17:39.559Z,57.67
2018-05-15T03:20:06.947Z,57.34
2018-05-15T03:22:34.326Z,57.70
2018-05-15T03:25:01.716Z,57.67
2018-05-15T03:27:29.104Z,57.74
2018-05-15T03:29:56.487Z,58.04
2018-05-15T03:32:23.871Z,58.39
2018-05-15T03:34:51.251Z,58.94
2018-05-15T03:37:18.638Z,58.56
2018-05-15T03:39:46.025Z,58.84
2018-05-15T03:42:13.411Z,59.23
2018-05-15T03:44:40.795Z,58.78
2018-05-15T03:47:08.195Z,58.90
2018-05-15T03:49:35.578Z,58.72
2018-05-15T03:52:02.961Z,58.23
2018-05-15T03:54:30.351Z,59.17
2018-05-15T03:56:57.734Z,59.12
2018-05-15T03:59:25.125Z,58.96
2018-05-15T04:02:04.415Z,59.08
2018-05-15T04:04:43.658Z,59.05
2018-05-15T04:07:22.794Z,59.33
2018-05-15T04:09:50.184Z,59.23
2018-05-15T04:12:17.567Z,59.71
2018-05-15T04:14:44.965Z,59.50
2018-05-15T04:17:12.348Z,59.97
2018-05-15T04:19:39.727Z,60.39
2018-05-15T04:22:07.118Z,59.95
2018-05-15T04:24:34.502Z,60.00
2018-05-15T04:27:01.890Z,60.50
2018-05-15T04:29:29.272Z,60.72
2018-05-15T04:31:56.667Z,61.01
2018-05-15T04:34:24.051Z,61.40
2018-05-15T04:36:51.435Z,61.21
2018-05-15T04:39:18.927Z,61.40
2018-05-15T04:41:46.315Z,61.83
2018-05-15T04:44:13.771Z,61.92
2018-05-15T04:46:41.161Z,61.89
2018-05-15T04:49:08.552Z,61.97
2018-05-15T04:51:35.943Z,61.90
2018-05-15T04:54:03.391Z,61.83
2018-05-15T04:56:30.790Z,62.10
2018-05-15T04:58:58.179Z,61.58
2018-05-15T05:01:25.574Z,61.85
2018-05-15T05:03:52.963Z,61.99
2018-05-15T05:06:20.438Z,61.56
2018-05-15T05:08:47.827Z,61.60
2018-05-15T05:11:15.216Z,61.57
2018-05-15T05:13:42.729Z,61.30
2018-05-15T05:16:10.102Z,60.92
2018-05-15T05:18:37.512Z,61.60
2018-05-15T05:21:04.971Z,61.48
2018-05-15T05:23:32.315Z,61.59
2018-05-15T05:25:59.706Z,61.37
2018-05-15T05:28:27.095Z,60.64
2018-05-15T05:30:54.482Z,60.68
2018-05-15T05:33:21.943Z,61.05
2018-05-15T05:35:49.279Z,60.86
2018-05-15T05:38:16.664Z,61.06
2018-05-15T05:40:44.071Z,60.42
2018-05-15T05:43:11.442Z,60.58
2018-05-15T05:45:38.831Z,60.42
2018-05-15T05:48:06.410Z,60.20
2018-05-15T05:50:33.795Z,61.09
2018-05-15T05:53:01.190Z,58.93
2018-05-15T05:55:28.579Z,58.79
2018-05-15T05:57:55.987Z,59.01
2018-05-15T06:00:23.419Z,57.97
2018-05-15T06:02:50.803Z,57.46
2018-05-15T06:05:18.198Z,57.35
2018-05-15T06:07:45.590Z,57.50
2018-05-15T06:10:12.990Z,56.14
2018-05-15T06:12:40.378Z,57.05
2018-05-15T06:15:07.778Z,56.04
2018-05-15T06:17:35.175Z,54.27
2018-05-15T06:20:02.559Z,55.24
2018-05-15T06:22:29.955Z,54.85
2018-05-15T06:24:57.342Z,53.32
2018-05-15T06:27:24.743Z,53.51
2018-05-15T06:29:52.126Z,53.44
2018-05-15T06:32:19.604Z,53.83
2018-05-15T06:34:46.903Z,52.69
2018-05-15T06:37:14.294Z,52.98
2018-05-15T06:39:41.694Z,51.23
2018-05-15T06:42:09.083Z,50.99
2018-05-15T06:44:36.473Z,51.47
2018-05-15T06:47:03.867Z,51.85
2018-05-15T06:49:31.251Z,51.03
2018-05-15T06:51:58.651Z,51.40
2018-05-15T06:54:26.042Z,51.08
2018-05-15T06:56:53.431Z,50.52
2018-05-15T06:59:20.823Z,51.16
2018-05-15T07:01:48.219Z,49.59
2018-05-15T07:04:15.604Z,50.82
2018-05-15T07:06:43.001Z,51.35
2018-05-15T07:09:10.426Z,50.67
2018-05-15T07:11:37.814Z,49.05
2018-05-15T07:14:05.282Z,49.99
2018-05-15T07:16:32.611Z,50.48
2018-05-15T07:18:59.998Z,48.97
2018-05-15T07:21:27.390Z,48.64
2018-05-15T07:23:54.779Z,50.51
2018-05-15T07:26:22.194Z,49.52
2018-05-15T07:28:49.578Z,48.32
2018-05-15T07:31:17.162Z,47.89
2018-05-15T07:33:44.552Z,49.28
2018-05-15T07:36:11.946Z,48.45
2018-05-15T07:38:39.334Z,46.35
2018-05-15T07:41:06.723Z,47.71
2018-05-15T07:43:34.123Z,49.34
2018-05-15T07:46:01.509Z,47.29
2018-05-15T07:48:28.899Z,47.62
2018-05-15T07:50:56.299Z,46.69
2018-05-15T07:53:23.685Z,46.60
2018-05-15T07:55:51.075Z,47.68
2018-05-15T07:58:18.463Z,48.11
2018-05-15T08:00:45.866Z,47.86
2018-05-15T08:03:13.262Z,47.20
2018-05-15T08:05:40.646Z,48.09
2018-05-15T08:08:08.135Z,44.07
2018-05-15T08:10:35.523Z,45.84
2018-05-15T08:13:02.919Z,46.71
2018-05-15T08:15:30.302Z,44.06
2018-05-15T08:17:57.774Z,44.97
2018-05-15T08:20:25.166Z,44.61
2018-05-15T08:22:52.555Z,44.27
2018-05-15T08:25:19.943Z,43.08
2018-05-15T08:27:47.331Z,43.15
2018-05-15T08:30:14.719Z,42.35
2018-05-15T08:32:42.115Z,43.44
2018-05-15T08:35:09.614Z,43.17
2018-05-15T08:37:37.155Z,40.70
2018-05-15T08:40:04.383Z,42.35
2018-05-15T08:42:31.779Z,43.68
2018-05-15T08:44:59.167Z,41.44
2018-05-15T08:47:26.555Z,44.12
2018-05-15T08:49:53.942Z,43.47
2018-05-15T08:52:21.361Z,42.06
2018-05-15T08:54:48.743Z,36.97
2018-05-15T08:57:16.134Z,36.81
2018-05-15T08:59:43.534Z,36.46
2018-05-15T09:02:10.906Z,36.01
2018-05-15T09:04:38.300Z,36.89
2018-05-15T09:07:05.691Z,38.26
2018-05-15T09:09:33.098Z,37.82
2018-05-15T09:12:00.479Z,37.97
2018-05-15T09:14:27.894Z,36.39
2018-05-15T09:16:55.266Z,39.10
2018-05-15T09:19:22.663Z,36.92
2018-05-15T09:21:50.060Z,35.70
2018-05-15T09:24:17.452Z,34.57
2018-05-15T09:26:44.843Z,36.91
2018-05-15T09:29:12.254Z,37.48
2018-05-15T09:31:39.643Z,35.55
2018-05-15T09:34:07.031Z,33.74
2018-05-15T09:36:34.426Z,34.33
2018-05-15T09:39:01.825Z,31.29
2018-05-15T09:41:29.214Z,33.15
2018-05-15T09:43:56.611Z,34.23
2018-05-15T09:46:24.007Z,33.00
2018-05-15T09:48:51.398Z,31.50
2018-05-15T09:51:18.786Z,35.48
2018-05-15T09:53:46.186Z,31.90
2018-05-15T09:56:13.567Z,32.52
2018-05-15T09:58:40.962Z,31.01
2018-05-15T10:01:08.355Z,32.75
2018-05-15T10:03:35.750Z,34.16
2018-05-15T10:06:03.148Z,33.60
2018-05-15T10:08:30.531Z,31.83
2018-05-15T10:10:57.945Z,30.92
2018-05-15T10:13:25.330Z,30.19
2018-05-15T10:15:52.720Z,32.53
2018-05-15T10:18:20.108Z,30.37
2018-05-15T10:20:47.495Z,32.93
2018-05-15T10:23:14.886Z,30.55
2018-05-15T10:25:42.282Z,28.91
2018-05-15T10:28:09.679Z,25.75
2018-05-15T10:30:37.071Z,28.67
2018-05-15T10:33:04.484Z,25.91
2018-05-15T10:35:31.872Z,29.82
2018-05-15T10:37:59.270Z,29.90
2018-05-15T10:40:26.650Z,29.53
2018-05-15T10:42:54.042Z,27.74
2018-05-15T10:45:21.430Z,29.16
2018-05-15T10:47:48.834Z,26.96
2018-05-15T10:50:16.231Z,25.95
2018-05-15T10:52:43.617Z,24.21
2018-05-15T10:55:11.020Z,27.55
2018-05-15T10:57:38.406Z,24.30
2018-05-15T11:00:05.798Z,28.18
2018-05-15T11:02:33.203Z,31.01
2018-05-15T11:05:00.602Z,26.57
2018-05-15T11:07:27.995Z,23.09
2018-05-15T11:09:55.379Z,26.38
2018-05-15T11:12:22.778Z,25.38
2018-05-15T11:14:50.171Z,26.79
2018-05-15T11:17:17.575Z,25.46
2018-05-15T11:19:56.544Z,22.82
2018-05-15T11:22:35.685Z,26.95
2018-05-15T11:25:03.080Z,25.81
2018-05-15T11:27:30.471Z,27.59
2018-05-15T11:29:57.859Z,29.05
2018-05-15T11:32:25.287Z,29.86
2018-05-15T11:34:52.675Z,29.17
2018-05-15T11:37:20.063Z,30.42
2018-05-15T11:39:47.472Z,27.64
2018-05-15T11:42:14.862Z,31.14
2018-05-15T11:44:42.263Z,26.19
2018-05-15T11:47:09.649Z,24.00
2018-05-15T11:49:37.840Z,25.66
2018-05-15T11:52:05.415Z,26.15
2018-05-15T11:54:31.843Z,24.49
2018-05-15T11:56:59.233Z,24.16
2018-05-15T11:59:26.623Z,25.80
2018-05-15T12:01:54.030Z,27.79
2018-05-15T12:04:21.514Z,22.90
2018-05-15T12:06:48.903Z,26.73
2018-05-15T12:09:16.291Z,22.96
2018-05-15T12:11:43.687Z,24.60
2018-05-15T12:14:11.080Z,23.40
2018-05-15T12:16:38.487Z,24.12
2018-05-15T12:19:05.881Z,26.60
2018-05-15T12:21:33.267Z,29.01
2018-05-15T12:24:00.655Z,28.81
2018-05-15T12:26:28.043Z,27.67
2018-05-15T12:28:55.439Z,28.93
2018-05-15T12:31:22.832Z,30.69
2018-05-15T12:33:50.227Z,29.35
2018-05-15T12:36:17.623Z,30.07
2018-05-15T12:38:45.011Z,27.02
2018-05-15T12:41:12.489Z,27.92
2018-05-15T12:43:39.791Z,30.81
2018-05-15T12:46:07.191Z,27.67
2018-05-15T12:48:34.658Z,26.55
2018-05-15T12:51:01.992Z,27.72
2018-05-15T12:53:29.367Z,26.68
2018-05-15T12:55:56.762Z,29.09
2018-05-15T12:58:24.150Z,30.58
2018-05-15T13:00:51.572Z,33.66
2018-05-15T13:03:18.959Z,35.12
2018-05-15T13:05:46.374Z,35.20
2018-05-15T13:08:13.772Z,35.27
2018-05-15T13:10:41.222Z,35.44
2018-05-15T13:13:08.616Z,33.93
2018-05-15T13:15:36.006Z,32.77
2018-05-15T13:18:03.407Z,32.57
2018-05-15T13:20:30.806Z,33.88
2018-05-15T13:22:58.218Z,33.21
2018-05-15T13:25:25.619Z,34.17
2018-05-15T13:27:53.011Z,31.22
2018-05-15T13:30:20.403Z,31.99
2018-05-15T13:32:47.963Z,32.50
2018-05-15T13:35:15.383Z,31.90
2018-05-15T13:37:42.768Z,33.18
2018-05-15T13:40:10.159Z,32.10
2018-05-15T13:42:37.578Z,33.37
2018-05-15T13:45:04.956Z,32.47
2018-05-15T13:47:32.339Z,30.07
2018-05-15T13:49:59.731Z,32.06
2018-05-15T13:52:27.192Z,32.95
2018-05-15T13:54:54.575Z,29.86
2018-05-15T13:57:21.967Z,31.47
2018-05-15T13:59:49.354Z,33.08
2018-05-15T14:02:16.789Z,31.97
2018-05-15T14:04:44.178Z,33.51
2018-05-15T14:07:11.563Z,33.88
2018-05-15T14:09:38.959Z,33.23
2018-05-15T14:12:06.355Z,32.92
2018-05-15T14:14:33.750Z,33.25
2018-05-15T14:17:01.163Z,33.09
2018-05-15T14:19:28.584Z,31.76
2018-05-15T14:21:56.026Z,31.99
2018-05-15T14:24:23.453Z,35.07
2018-05-15T14:26:50.867Z,33.99
2018-05-15T14:29:18.253Z,33.47
2018-05-15T14:31:45.664Z,35.46
2018-05-15T14:34:13.060Z,34.00
2018-05-15T14:36:40.552Z,36.35
2018-05-15T14:39:07.947Z,32.22
2018-05-15T14:41:47.179Z,32.63
2018-05-15T14:44:14.582Z,32.13
2018-05-15T14:46:41.976Z,32.88
2018-05-15T14:49:09.368Z,36.19
2018-05-15T14:51:36.800Z,32.26
2018-05-15T14:54:06.656Z,35.63
2018-05-15T14:56:34.179Z,32.82
2018-05-15T14:59:01.567Z,32.08
2018-05-15T15:01:28.971Z,32.95
2018-05-15T15:03:56.361Z,34.15
2018-05-15T15:06:23.748Z,34.65
2018-05-15T15:08:51.301Z,34.60
2018-05-15T15:11:18.715Z,33.76
2018-05-15T15:13:46.127Z,34.26
2018-05-15T15:16:13.525Z,33.30
2018-05-15T15:18:40.939Z,32.83
2018-05-15T15:21:08.315Z,32.06
2018-05-15T15:23:35.720Z,32.54
2018-05-15T15:26:03.094Z,31.22
2018-05-15T15:28:30.483Z,30.96
2018-05-15T15:30:57.875Z,30.70
2018-05-15T15:33:25.291Z,32.05
2018-05-15T15:35:52.695Z,34.25
2018-05-15T15:38:20.078Z,34.46
2018-05-15T15:40:47.473Z,34.19
2018-05-15T15:43:14.863Z,35.55
2018-05-15T15:45:42.247Z,35.37
2018-05-15T15:48:09.643Z,36.17
2018-05-15T15:50:37.023Z,36.12
2018-05-15T15:53:04.423Z,36.52
2018-05-15T15:55:31.806Z,35.93
2018-05-15T15:57:59.190Z,36.11
2018-05-15T16:00:26.586Z,36.21
2018-05-15T16:02:53.967Z,36.24
2018-05-15T16:05:21.359Z,35.93
2018-05-15T16:07:48.751Z,37.13
2018-05-15T16:10:16.154Z,34.97
2018-05-15T16:12:43.536Z,35.05
2018-05-15T16:15:10.920Z,34.43
2018-05-15T16:17:38.318Z,34.50
2018-05-15T16:20:05.694Z,36.22
2018-05-15T16:22:33.085Z,34.15
2018-05-15T16:25:00.470Z,35.40
2018-05-15T16:27:28.016Z,34.13
2018-05-15T16:29:55.404Z,33.52
2018-05-15T16:32:22.794Z,34.76
2018-05-15T16:34:50.187Z,35.14
2018-05-15T16:37:17.562Z,35.54
2018-05-15T16:39:44.951Z,34.68
2018-05-15T16:42:12.339Z,34.57
2018-05-15T16:44:39.740Z,35.67
2018-05-15T16:47:07.125Z,35.84
2018-05-15T16:49:34.506Z,34.12
2018-05-15T16:52:01.905Z,36.16
2018-05-15T16:54:29.295Z,36.51
2018-05-15T16:56:56.675Z,37.48
2018-05-15T16:59:24.135Z,36.32
2018-05-15T17:01:51.460Z,36.77
2018-05-15T17:04:18.846Z,37.34
2018-05-15T17:06:46.275Z,37.82
2018-05-15T17:09:14.703Z,36.10
2018-05-15T17:11:42.078Z,36.50
2018-05-15T17:14:09.521Z,37.04
2018-05-15T17:16:36.906Z,39.06
2018-05-15T17:19:04.322Z,38.42
2018-05-15T17:21:31.782Z,38.09
2018-05-15T17:23:59.175Z,38.11
2018-05-15T17:26:26.577Z,38.16
2018-05-15T17:28:53.983Z,38.06
2018-05-15T17:31:21.412Z,38.57
2018-05-15T17:33:48.758Z,37.79
2018-05-15T17:36:16.157Z,37.61
2018-05-15T17:38:43.594Z,38.20
2018-05-15T17:41:10.987Z,37.70
2018-05-15T17:43:38.403Z,38.47
2018-05-15T17:46:05.812Z,38.67
2018-05-15T17:48:33.196Z,38.86
2018-05-15T17:51:00.783Z,38.46
2018-05-15T17:53:28.191Z,37.19
2018-05-15T17:55:55.578Z,38.96
2018-05-15T17:58:22.967Z,38.45
2018-05-15T18:00:50.358Z,39.08
2018-05-15T18:03:17.808Z,38.60
2018-05-15T18:05:45.191Z,38.91
2018-05-15T18:08:12.591Z,39.37
2018-05-15T18:10:40.003Z,38.24
2018-05-15T18:13:07.375Z,39.29
2018-05-15T18:15:34.808Z,39.52
2018-05-15T18:18:02.230Z,40.00
2018-05-15T18:20:29.619Z,41.02
2018-05-15T18:22:57.081Z,40.21
2018-05-15T18:25:24.474Z,40.69
2018-05-15T18:27:51.880Z,41.17
2018-05-15T18:30:19.285Z,41.20
2018-05-15T18:32:46.671Z,41.30
2018-05-15T18:35:14.051Z,41.24
2018-05-15T18:37:41.446Z,42.38
2018-05-15T18:40:09.683Z,42.92
2018-05-15T18:42:37.087Z,43.76
2018-05-15T18:45:04.489Z,42.89
2018-05-15T18:47:31.877Z,43.05
2018-05-15T18:49:59.267Z,42.09
2018-05-15T18:52:26.647Z,42.77
2018-05-15T18:54:54.036Z,42.93
2018-05-15T18:57:21.424Z,43.39
2018-05-15T18:59:48.839Z,43.29
2018-05-15T19:02:16.333Z,43.21
2018-05-15T19:04:43.723Z,43.24
2018-05-15T19:07:11.167Z,45.15
2018-05-15T19:09:38.588Z,46.10
2018-05-15T19:12:06.028Z,45.90
2018-05-15T19:14:33.390Z,47.29
2018-05-15T19:17:00.797Z,48.01
2018-05-15T19:19:28.277Z,48.19
2018-05-15T19:21:55.635Z,48.32
2018-05-15T19:24:23.093Z,48.68
2018-05-15T19:26:50.571Z,49.34
2018-05-15T19:29:17.911Z,49.56
2018-05-15T19:31:45.318Z,49.72
2018-05-15T19:34:27.271Z,50.10
2018-05-15T19:37:00.333Z,50.53
2018-05-15T19:39:33.671Z,50.58
2018-05-15T19:42:01.016Z,50.42
2018-05-15T19:44:28.404Z,51.04
2018-05-15T19:46:55.787Z,50.94
2018-05-15T19:49:23.191Z,50.69
2018-05-15T19:51:50.710Z,51.05
2018-05-15T19:54:18.031Z,51.64
2018-05-15T19:56:45.431Z,51.58
2018-05-15T19:59:12.829Z,51.44
2018-05-15T20:01:40.224Z,52.02
2018-05-15T20:04:07.616Z,52.39
2018-05-15T20:06:35.007Z,52.17
2018-05-15T20:09:02.424Z,52.19
2018-05-15T20:11:29.798Z,52.55
2018-05-15T20:13:57.191Z,52.41
2018-05-15T20:16:24.579Z,53.16
2018-05-15T20:18:51.978Z,54.01
2018-05-15T20:21:19.376Z,54.22
2018-05-15T20:23:46.782Z,53.85
2018-05-15T20:26:14.153Z,53.99
2018-05-15T20:28:41.621Z,54.35
2018-05-15T20:31:09.007Z,54.54
2018-05-15T20:33:36.479Z,54.61
2018-05-15T20:36:03.862Z,54.85
2018-05-15T20:38:31.251Z,55.13
2018-05-15T20:40:58.674Z,55.06
2018-05-15T20:43:26.048Z,54.98
2018-05-15T20:45:53.435Z,55.01
2018-05-15T20:48:20.823Z,55.79
2018-05-15T20:50:48.226Z,56.59
2018-05-15T20:53:15.778Z,57.25
2018-05-15T20:55:43.183Z,57.62
2018-05-15T20:58:10.575Z,57.62
2018-05-15T21:00:38.047Z,57.83
2018-05-15T21:03:05.367Z,58.06
2018-05-15T21:05:32.762Z,58.39
2018-05-15T21:08:00.187Z,58.01
2018-05-15T21:10:27.579Z,58.57
2018-05-15T21:12:55.156Z,58.84
2018-05-15T21:15:22.540Z,59.05
2018-05-15T21:17:49.942Z,59.29
2018-05-15T21:20:17.327Z,59.53
2018-05-15T21:22:44.714Z,59.40
2018-05-15T21:25:12.107Z,59.61
2018-05-15T21:27:39.563Z,59.49
2018-05-15T21:30:06.951Z,60.13
2018-05-15T21:32:34.340Z,61.20
2018-05-15T21:35:01.728Z,61.09
2018-05-15T21:37:29.112Z,61.64
2018-05-15T21:39:56.648Z,61.95
2018-05-15T21:42:24.033Z,61.80
2018-05-15T21:44:51.518Z,61.69
2018-05-15T21:47:18.987Z,61.96
2018-05-15T21:49:46.290Z,62.72
2018-05-15T21:52:13.679Z,63.12
2018-05-15T21:54:41.062Z,63.34
2018-05-15T21:57:08.455Z,63.74
2018-05-15T21:59:35.850Z,63.36
2018-05-15T22:02:03.246Z,63.22
2018-05-15T22:04:30.670Z,62.93
2018-05-15T22:06:58.062Z,62.65
2018-05-15T22:09:25.507Z,63.01
2018-05-15T22:12:04.546Z,62.04
2018-05-15T22:14:43.644Z,61.90
2018-05-15T22:17:22.867Z,62.20
2018-05-15T22:20:02.060Z,61.69
2018-05-15T22:22:28.927Z,62.38
2018-05-15T22:24:56.307Z,62.10
2018-05-15T22:27:23.694Z,62.64
2018-05-15T22:29:51.090Z,63.04
2018-05-15T22:32:18.489Z,63.66
2018-05-15T22:34:45.876Z,62.64
2018-05-15T22:37:13.259Z,61.50
2018-05-15T22:39:40.643Z,61.38
2018-05-15T22:42:08.031Z,61.84
2018-05-15T22:44:35.415Z,62.71
2018-05-15T22:47:02.807Z,63.63
2018-05-15T22:49:30.195Z,63.76
2018-05-15T22:51:57.584Z,63.94
2018-05-15T22:54:24.963Z,63.65
2018-05-15T22:56:52.351Z,62.34
2018-05-15T22:59:19.738Z,62.47
2018-05-15T23:01:47.127Z,62.20
2018-05-15T23:04:14.510Z,61.72
2018-05-15T23:06:41.898Z,61.39
2018-05-15T23:09:09.287Z,61.40
2018-05-15T23:11:36.674Z,60.88
2018-05-15T23:14:04.067Z,60.62
2018-05-15T23:16:31.459Z,60.68
2018-05-15T23:18:58.849Z,59.66
2018-05-15T23:21:26.240Z,59.56
2018-05-15T23:23:53.619Z,59.17
2018-05-15T23:26:20.998Z,59.36
2018-05-15T23:28:48.396Z,58.54
2018-05-15T23:31:15.783Z,58.23
2018-05-15T23:33:43.179Z,59.19
2018-05-15T23:36:10.564Z,59.82
2018-05-15T23:38:37.961Z,61.35
2018-05-15T23:41:05.340Z,62.47
2018-05-15T23:43:32.723Z,62.30
2018-05-15T23:46:00.111Z,62.47
2018-05-15T23:48:27.498Z,63.25
2018-05-15T23:50:54.943Z,63.11
2018-05-15T23:53:22.394Z,63.22
2018-05-15T23:55:49.730Z,62.36
2018-05-15T23:58:17.110Z,61.87
